Pointblank, Texas
Current Conditions -  °F | °C
As of 9:53 AM on Wednesday 22 Oct 2014 (Local Time) from KUTS Reporting Station
Clear Clear  
Wind Chill: 69°   Ceiling: Unl
Heat Index: 69°   Visibility: 7mi
Dew Point: 63°   Wind: 3mph
Humidity: 81%   Direction: 80°E
Pressure: 30.14"   Gusts: NA
Location:  30.74°N, 95.21°W
Report Text: KUTS 221453Z AUTO 08003KT 7SM CLR 21/17 A3014 RMK AO2 SLP201 T02060172 51013
Loading
Personal Weather Stations






























Interactive Weather Map New forecast layout! Learn more

10-Day Weather Forecast

Advertisements
Track Severe Weather on mobile